Time;durP1;ratioP1;P1;durP2;ratioP2;P2;SDS_P1;SDS_P2;PMS_P1;PMS_P2;Temp;Humidity;BMP_temperature;BMP_pressure;BME280_temperature;BME280_humidity;BME280_pressure;Samples;Min_cycle;Max_cycle;Signal;HPM_P1;HPM_P2
2022/07/05 00:02:56;;;;;;;4.27;2.80;;;18.20;99.90;;;;;;20809635;28;20034;-78
2022/07/05 00:12:56;;;;;;;10.10;3.70;;;18.50;99.90;;;;;;20762180;28;20030;-78
2022/07/05 00:22:57;;;;;;;5.10;2.73;;;18.40;99.90;;;;;;20802853;28;20116;-78
2022/07/05 00:32:58;;;;;;;7.93;2.80;;;18.50;99.90;;;;;;20803101;28;20171;-78
2022/07/05 00:42:59;;;;;;;6.57;2.73;;;18.50;99.90;;;;;;20840348;28;20091;-78
2022/07/05 00:53:00;;;;;;;4.00;2.97;;;18.20;99.90;;;;;;20842620;28;20477;-77
2022/07/05 01:03:01;;;;;;;11.18;2.92;;;18.00;99.90;;;;;;20841829;28;20029;-78
2022/07/05 01:13:02;;;;;;;6.50;3.30;;;17.90;99.90;;;;;;20840955;28;20029;-78
2022/07/05 01:23:04;;;;;;;5.57;2.88;;;17.90;99.90;;;;;;20840404;28;20064;-78
2022/07/05 01:33:06;;;;;;;3.20;2.80;;;17.90;99.90;;;;;;20837183;28;20040;-78
2022/07/05 01:43:07;;;;;;;5.68;3.17;;;17.70;99.90;;;;;;20834486;28;20091;-78
2022/07/05 01:53:14;;;;;;;3.73;3.00;;;17.60;99.90;;;;;;20833798;28;20029;-78
2022/07/05 02:03:16;;;;;;;2.80;2.42;;;17.30;99.90;;;;;;20833967;28;20455;-79
2022/07/05 02:13:17;;;;;;;5.20;3.65;;;17.50;99.90;;;;;;20833438;28;20033;-78
2022/07/05 02:23:19;;;;;;;3.78;3.08;;;17.50;99.90;;;;;;20833377;28;20056;-78
2022/07/05 02:33:20;;;;;;;9.90;3.85;;;17.50;99.90;;;;;;20833212;28;20049;-78
2022/07/05 02:43:23;;;;;;;5.28;3.38;;;17.30;99.90;;;;;;20829997;28;20112;-78
2022/07/05 02:53:24;;;;;;;7.17;3.00;;;17.30;99.90;;;;;;20829178;28;20036;-79
2022/07/05 03:03:25;;;;;;;6.65;3.17;;;17.40;99.90;;;;;;20829526;28;20033;-79
2022/07/05 03:13:28;;;;;;;7.35;3.38;;;17.50;99.90;;;;;;20829076;28;20029;-78
2022/07/05 03:23:29;;;;;;;4.43;3.20;;;17.50;99.90;;;;;;20830558;28;20200;-79
2022/07/05 03:33:32;;;;;;;4.10;3.50;;;17.30;99.90;;;;;;20828108;28;20504;-79
2022/07/05 03:43:35;;;;;;;6.18;4.40;;;17.40;99.90;;;;;;20829052;28;20032;-79
2022/07/05 03:53:37;;;;;;;12.82;6.72;;;17.20;99.90;;;;;;20826445;28;20482;-79
2022/07/05 04:03:40;;;;;;;9.65;6.25;;;17.30;99.90;;;;;;20811345;28;20409;-79
2022/07/05 04:13:41;;;;;;;8.18;5.38;;;17.40;99.90;;;;;;20822878;28;20197;-78
2022/07/05 04:23:42;;;;;;;12.27;5.30;;;17.60;99.90;;;;;;20839078;28;20034;-79
2022/07/05 04:33:44;;;;;;;4.80;4.05;;;17.60;99.90;;;;;;20843656;28;20672;-78
2022/07/05 04:43:48;;;;;;;4.68;3.70;;;17.70;99.90;;;;;;20842342;28;20034;-79
2022/07/05 04:53:49;;;;;;;10.43;4.50;;;17.90;99.90;;;;;;20838775;28;20060;-78
2022/07/05 05:03:50;;;;;;;12.87;4.50;;;17.90;99.90;;;;;;20842532;28;20034;-77
2022/07/05 05:13:51;;;;;;;6.50;4.67;;;17.80;99.90;;;;;;20837653;28;20053;-78
2022/07/05 05:23:51;;;;;;;7.73;4.60;;;17.70;99.90;;;;;;20842150;28;20081;-77
2022/07/05 05:33:52;;;;;;;8.23;3.90;;;17.70;99.90;;;;;;20851647;28;20057;-77
2022/07/05 05:43:53;;;;;;;12.13;4.50;;;17.70;99.90;;;;;;20822846;28;20026;-77
2022/07/05 05:53:54;;;;;;;11.77;4.57;;;17.80;99.90;;;;;;20856637;28;20059;-78
2022/07/05 06:03:55;;;;;;;11.20;4.67;;;17.70;99.90;;;;;;20868135;28;20040;-79
2022/07/05 06:13:55;;;;;;;8.00;4.60;;;17.90;99.90;;;;;;20872666;28;20545;-79
2022/07/05 06:23:56;;;;;;;7.93;3.20;;;18.40;99.90;;;;;;20845571;28;20045;-78
2022/07/05 06:33:57;;;;;;;13.23;3.57;;;18.80;99.90;;;;;;20859379;28;20059;-79
2022/07/05 06:43:58;;;;;;;7.73;2.70;;;19.00;99.90;;;;;;20860626;28;20018;-79
2022/07/05 06:53:59;;;;;;;3.42;1.95;;;19.50;99.90;;;;;;20847294;28;20137;-79
2022/07/05 07:04:00;;;;;;;7.93;2.23;;;19.80;99.90;;;;;;20788141;28;20038;-78
2022/07/05 07:14:01;;;;;;;2.73;1.90;;;20.20;99.90;;;;;;20785417;28;20029;-78
2022/07/05 07:24:01;;;;;;;3.30;1.80;;;20.70;99.90;;;;;;20775689;28;20034;-79
2022/07/05 07:34:02;;;;;;;6.30;2.60;;;21.30;99.90;;;;;;20758870;28;20048;-82
2022/07/05 07:44:03;;;;;;;5.20;2.33;;;21.10;99.90;;;;;;20769937;28;20037;-79
2022/07/05 07:54:04;;;;;;;4.83;2.13;;;21.60;99.90;;;;;;20775696;28;20037;-81
2022/07/05 08:04:05;;;;;;;9.82;2.10;;;21.50;99.90;;;;;;20772066;28;20038;-81
2022/07/05 08:14:06;;;;;;;5.43;1.97;;;21.80;99.90;;;;;;20770143;28;20105;-81
2022/07/05 08:24:10;;;;;;;5.72;1.92;;;22.60;99.90;;;;;;20781238;28;20037;-81
2022/07/05 08:34:11;;;;;;;4.68;1.75;;;22.60;99.90;;;;;;20786059;28;20034;-82
2022/07/05 08:44:15;;;;;;;1.70;1.35;;;22.70;99.90;;;;;;20767822;28;20489;-80
2022/07/05 08:54:17;;;;;;;3.25;1.70;;;23.60;99.90;;;;;;20779793;28;20402;-80
2022/07/05 09:04:19;;;;;;;4.90;1.27;;;24.10;99.90;;;;;;20768598;28;20073;-77
2022/07/05 09:14:25;;;;;;;5.50;1.90;;;24.40;99.90;;;;;;20752486;28;20061;-76
2022/07/05 09:24:26;;;;;;;2.53;1.00;;;24.80;99.90;;;;;;20751617;28;20045;-76
2022/07/05 09:34:30;;;;;;;2.45;0.90;;;25.10;99.90;;;;;;20750959;28;20026;-76
2022/07/05 09:44:37;;;;;;;2.70;1.02;;;25.90;99.90;;;;;;20749159;28;20065;-76
2022/07/05 09:54:37;;;;;;;2.95;0.90;;;25.90;99.90;;;;;;20754653;28;20474;-76
2022/07/05 10:04:38;;;;;;;3.10;0.65;;;25.90;99.90;;;;;;20748816;28;20037;-76
2022/07/05 10:14:39;;;;;;;1.60;0.70;;;26.10;99.90;;;;;;20748174;28;20030;-76
2022/07/05 10:24:41;;;;;;;8.20;0.90;;;26.20;99.90;;;;;;20746230;28;20037;-76
2022/07/05 10:34:46;;;;;;;2.97;0.80;;;26.80;99.90;;;;;;20747344;28;20049;-75
2022/07/05 10:44:47;;;;;;;2.03;1.05;;;27.00;99.90;;;;;;20756285;28;20034;-75
2022/07/05 10:55:19;;;;;;;4.28;1.10;;;26.70;99.90;;;;;;20745671;28;20036;-75
2022/07/05 11:05:24;;;;;;;2.70;0.75;;;28.40;99.90;;;;;;20745319;28;20038;-75
2022/07/05 11:15:25;;;;;;;1.63;1.00;;;27.40;99.90;;;;;;20748560;28;20034;-76
2022/07/05 11:25:30;;;;;;;2.22;0.70;;;27.80;99.90;;;;;;20769388;23;20045;-74
2022/07/05 11:35:33;;;;;;;2.58;0.70;;;28.40;99.90;;;;;;20660008;28;20053;-74
2022/07/05 11:45:35;;;;;;;4.88;0.90;;;27.90;99.90;;;;;;20661356;28;20034;-74
2022/07/05 11:55:36;;;;;;;1.95;0.60;;;28.70;99.90;;;;;;20660656;28;20499;-74
2022/07/05 12:05:36;;;;;;;4.43;0.75;;;29.40;99.90;;;;;;20660614;28;20088;-74
2022/07/05 12:15:39;;;;;;;1.50;0.70;;;28.30;99.90;;;;;;20659940;28;20033;-74
2022/07/05 12:25:40;;;;;;;4.32;0.70;;;27.90;99.90;;;;;;20659465;28;20285;-74
2022/07/05 12:35:40;;;;;;;4.05;0.77;;;28.20;99.90;;;;;;20673401;28;20049;-74
2022/07/05 12:45:44;;;;;;;4.07;0.90;;;28.50;99.90;;;;;;20671719;28;20038;-74
2022/07/05 13:06:04;;;;;;;2.47;0.70;;;29.70;99.90;;;;;;20671258;28;20041;-74
2022/07/05 13:16:04;;;;;;;1.15;0.50;;;28.90;99.90;;;;;;20669317;28;20034;-74
2022/07/05 13:26:06;;;;;;;4.68;0.77;;;29.20;99.90;;;;;;20668441;28;20034;-74
2022/07/05 13:36:07;;;;;;;2.83;0.82;;;29.20;99.90;;;;;;20668834;28;20070;-74
2022/07/05 13:46:08;;;;;;;2.92;0.50;;;28.80;99.90;;;;;;20668216;28;20426;-74
2022/07/05 13:56:09;;;;;;;0.90;0.50;;;28.60;99.90;;;;;;20668121;28;20430;-74
2022/07/05 14:06:10;;;;;;;2.78;0.40;;;29.30;99.10;;;;;;20667050;28;20057;-74
2022/07/05 14:16:11;;;;;;;0.40;0.40;;;28.90;95.50;;;;;;20665913;28;20462;-74
2022/07/05 14:26:12;;;;;;;1.02;0.47;;;29.20;95.60;;;;;;20665714;28;20030;-74
2022/07/05 14:36:13;;;;;;;1.67;0.38;;;28.60;93.70;;;;;;20713581;28;20038;-74
2022/07/05 14:46:18;;;;;;;0.52;0.35;;;28.90;97.50;;;;;;20696126;28;20427;-74
2022/07/05 14:56:19;;;;;;;1.58;0.50;;;28.70;96.70;;;;;;20671747;28;20056;-75
2022/07/05 15:06:21;;;;;;;5.32;0.68;;;28.60;94.80;;;;;;20724771;28;20120;-75
2022/07/05 15:16:22;;;;;;;1.92;0.50;;;27.60;97.50;;;;;;20660912;28;20050;-74
2022/07/05 15:26:23;;;;;;;7.90;0.57;;;27.50;97.80;;;;;;20642477;28;20046;-76
2022/07/05 15:36:25;;;;;;;2.65;0.90;;;27.40;97.20;;;;;;20684230;28;20811;-76
2022/07/05 15:46:59;;;;;;;8.40;0.80;;;27.90;96.50;;;;;;20656410;28;20038;-77
2022/07/05 15:56:47;;;;;;;4.93;0.70;;;27.60;98.90;;;;;;20664315;28;20034;-76
2022/07/05 16:06:49;;;;;;;1.98;0.65;;;27.10;96.30;;;;;;20721220;28;20040;-76
2022/07/05 16:16:50;;;;;;;1.83;0.50;;;27.50;98.60;;;;;;20695387;28;20037;-75
2022/07/05 16:26:50;;;;;;;1.70;0.60;;;26.90;97.40;;;;;;20702261;28;20402;-75
2022/07/05 16:36:51;;;;;;;0.98;0.50;;;27.20;97.70;;;;;;20706881;28;20040;-76
2022/07/05 16:46:52;;;;;;;1.40;0.40;;;27.40;96.90;;;;;;20742453;28;20022;-76
2022/07/05 16:56:53;;;;;;;1.15;0.52;;;26.80;96.10;;;;;;20715184;28;20497;-76
2022/07/05 17:06:54;;;;;;;2.80;0.60;;;26.80;97.60;;;;;;20746913;28;20040;-76
2022/07/05 17:16:55;;;;;;;0.95;0.57;;;26.50;96.10;;;;;;20749423;28;20026;-76
2022/07/05 17:26:56;;;;;;;4.32;0.80;;;26.80;96.50;;;;;;20810673;23;20138;-77
2022/07/05 17:36:57;;;;;;;2.30;0.65;;;26.70;98.00;;;;;;20889356;28;20496;-77
2022/07/05 17:46:58;;;;;;;1.30;0.80;;;26.60;98.80;;;;;;20835054;28;20489;-77
2022/07/05 17:56:59;;;;;;;2.50;0.50;;;26.60;99.90;;;;;;20853969;28;20048;-80
2022/07/05 18:07:00;;;;;;;1.33;0.38;;;26.90;99.90;;;;;;20835486;28;20517;-80
2022/07/05 18:17:00;;;;;;;2.33;0.77;;;28.30;99.90;;;;;;20852028;28;20044;-81
2022/07/05 18:27:01;;;;;;;3.03;0.60;;;29.30;99.80;;;;;;20843869;28;20397;-79
2022/07/05 18:37:02;;;;;;;1.92;0.50;;;29.30;99.90;;;;;;20848310;28;20516;-79
2022/07/05 18:47:03;;;;;;;2.92;0.80;;;27.20;99.90;;;;;;20828406;28;20036;-77
2022/07/05 18:57:04;;;;;;;1.10;0.90;;;25.00;99.90;;;;;;20825104;28;20409;-76
2022/07/05 19:17:25;;;;;;;1.15;0.90;;;23.10;99.90;;;;;;20839934;28;20423;-78
2022/07/05 19:27:26;;;;;;;0.82;0.80;;;22.20;99.90;;;;;;20855786;28;20029;-78
2022/07/05 19:37:27;;;;;;;3.37;0.80;;;21.90;99.90;;;;;;20845482;28;20040;-80
2022/07/05 19:47:28;;;;;;;2.60;1.10;;;21.60;99.90;;;;;;20857831;28;20481;-79
2022/07/05 19:57:29;;;;;;;1.80;0.90;;;21.40;99.90;;;;;;20857848;28;20093;-79
2022/07/05 20:07:30;;;;;;;3.97;1.27;;;21.00;99.90;;;;;;20853689;28;20033;-79
2022/07/05 20:17:30;;;;;;;1.67;1.20;;;20.80;99.90;;;;;;20856959;28;20021;-79
2022/07/05 20:27:31;;;;;;;8.27;1.40;;;20.30;99.90;;;;;;20845670;28;20037;-79
2022/07/05 20:37:32;;;;;;;1.63;0.87;;;19.80;99.90;;;;;;20833159;28;20037;-79
2022/07/05 20:47:33;;;;;;;3.23;1.30;;;19.70;99.90;;;;;;20847870;28;20025;-79
2022/07/05 20:57:34;;;;;;;4.37;1.03;;;19.20;99.90;;;;;;20820547;28;20033;-77
2022/07/05 21:07:35;;;;;;;3.53;1.90;;;19.50;99.90;;;;;;20822146;28;20023;-78
2022/07/05 21:17:39;;;;;;;7.25;1.50;;;19.20;99.90;;;;;;20868059;28;20121;-78
2022/07/05 21:27:43;;;;;;;3.30;1.13;;;19.10;99.90;;;;;;20867156;28;1388005;-79
2022/07/05 21:37:44;;;;;;;3.00;1.52;;;19.00;99.90;;;;;;20896678;28;20056;-77
2022/07/05 21:47:45;;;;;;;2.57;1.40;;;18.60;99.90;;;;;;20848276;28;20433;-77
2022/07/05 21:57:46;;;;;;;3.03;1.60;;;18.30;99.90;;;;;;20851030;28;20033;-78
2022/07/05 22:07:47;;;;;;;2.30;1.70;;;17.70;99.90;;;;;;20854843;28;20038;-78
2022/07/05 22:17:48;;;;;;;2.60;1.50;;;17.10;99.90;;;;;;20854658;28;20113;-78
2022/07/05 22:27:48;;;;;;;2.67;1.50;;;17.20;99.90;;;;;;20859963;28;20044;-79
2022/07/05 22:37:49;;;;;;;2.30;1.20;;;17.00;99.90;;;;;;20860675;28;20037;-79
2022/07/05 22:47:50;;;;;;;3.73;1.67;;;17.30;99.90;;;;;;20864396;28;20379;-79
2022/07/05 22:57:51;;;;;;;1.90;1.30;;;16.70;99.90;;;;;;20865393;28;20038;-79
2022/07/05 23:07:52;;;;;;;1.90;1.40;;;16.40;99.90;;;;;;20855302;28;20489;-79
2022/07/05 23:17:52;;;;;;;4.07;1.40;;;16.20;99.90;;;;;;20846512;28;20401;-77
2022/07/05 23:27:53;;;;;;;3.93;1.40;;;16.20;99.90;;;;;;20886903;23;20044;-79
2022/07/05 23:37:55;;;;;;;4.83;1.57;;;16.30;99.90;;;;;;20937165;28;20452;-79
2022/07/05 23:47:56;;;;;;;;;;;16.30;99.90;;;;;;20937302;28;20043;-79
2022/07/05 23:57:56;;;;;;;4.60;1.80;;;16.20;99.90;;;;;;20940559;28;19913;-79
